createdAt,value
2023-02-19T00:01:46.682Z,99972.13
2023-02-19T00:04:19.291Z,99966.19
2023-02-19T00:06:47.811Z,99973.94
2023-02-19T00:09:16.724Z,99970.53
2023-02-19T00:11:44.810Z,99960.28
2023-02-19T00:14:16.628Z,99969.69
2023-02-19T00:16:43.874Z,99967.97
2023-02-19T00:19:14.313Z,99966.22
2023-02-19T00:21:41.675Z,99962.84
2023-02-19T00:24:12.560Z,99969.59
2023-02-19T00:26:41.424Z,99967.91
2023-02-19T00:29:13.268Z,99968.75
2023-02-19T00:31:42.170Z,99962.78
2023-02-19T00:34:10.941Z,99975.59
2023-02-19T00:36:40.079Z,99973.00
2023-02-19T00:39:08.304Z,99971.31
2023-02-19T00:41:35.705Z,99966.19
2023-02-19T00:44:05.456Z,99965.31
2023-02-19T00:46:35.925Z,99967.84
2023-02-19T00:49:04.683Z,99961.03
2023-02-19T00:51:34.937Z,99963.59
2023-02-19T00:54:01.951Z,99948.94
2023-02-19T00:56:31.063Z,99960.97
2023-02-19T00:58:58.245Z,99959.25
2023-02-19T01:01:25.466Z,99966.97
2023-02-19T01:03:52.985Z,99962.66
2023-02-19T01:06:21.592Z,99954.13
2023-02-19T01:08:49.044Z,99958.44
2023-02-19T01:11:17.457Z,99961.84
2023-02-19T01:13:45.146Z,99963.47
2023-02-19T01:16:20.726Z,99960.03
2023-02-19T01:18:48.699Z,99965.94
2023-02-19T01:21:19.805Z,99954.81
2023-02-19T01:23:48.104Z,99959.03
2023-02-19T01:26:18.755Z,99958.19
2023-02-19T01:28:47.370Z,99959.84
2023-02-19T01:31:17.738Z,99955.56
2023-02-19T01:33:50.303Z,99958.94
2023-02-19T01:36:18.190Z,99957.19
2023-02-19T01:38:46.003Z,99956.25
2023-02-19T01:41:16.650Z,99955.41
2023-02-19T01:44:09.007Z,99945.13
2023-02-19T01:46:38.407Z,99951.09
2023-02-19T01:49:30.437Z,99956.16
2023-02-19T01:52:06.466Z,99944.19
2023-02-19T01:54:40.716Z,99941.56
2023-02-19T01:57:12.723Z,99934.75
2023-02-19T01:59:41.219Z,99932.13
2023-02-19T02:02:09.432Z,99938.16
2023-02-19T02:04:36.893Z,99938.16
2023-02-19T02:07:25.592Z,99941.56
2023-02-19T02:10:11.981Z,99943.25
2023-02-19T02:12:39.494Z,99934.75
2023-02-19T02:15:07.988Z,99926.28
2023-02-19T02:17:56.414Z,99917.78
2023-02-19T02:20:42.243Z,99910.16
2023-02-19T02:23:30.486Z,99899.06
2023-02-19T02:26:17.565Z,99899.97
2023-02-19T02:29:11.151Z,99905.94
2023-02-19T02:31:42.769Z,99905.94
2023-02-19T02:34:27.679Z,99900.88
2023-02-19T02:36:57.858Z,99895.78
2023-02-19T02:39:28.535Z,99890.69
2023-02-19T02:42:16.825Z,99894.16
2023-02-19T02:45:09.770Z,99899.25
2023-02-19T02:47:57.806Z,99898.41
2023-02-19T02:50:36.993Z,99882.19
2023-02-19T02:53:30.504Z,99872.00
2023-02-19T02:56:00.643Z,99871.97
2023-02-19T02:58:29.954Z,99865.13
2023-02-19T03:01:20.004Z,99851.50
2023-02-19T03:03:52.057Z,99856.59
2023-02-19T03:06:21.362Z,99859.13
2023-02-19T03:08:56.047Z,99869.38
2023-02-19T03:11:42.336Z,99868.56
2023-02-19T03:14:43.205Z,99859.97
2023-02-19T03:17:35.637Z,99863.38
2023-02-19T03:20:09.786Z,99859.84
2023-02-19T03:22:38.696Z,99871.78
2023-02-19T03:25:33.286Z,99861.53
2023-02-19T03:28:05.549Z,99871.66
2023-02-19T03:30:37.003Z,99883.66
2023-02-19T03:33:27.586Z,99871.72
2023-02-19T03:36:02.657Z,99870.00
2023-02-19T03:38:45.056Z,99867.44
2023-02-19T03:41:41.131Z,99863.16
2023-02-19T03:44:08.566Z,99866.59
2023-02-19T03:46:41.783Z,99861.50
2023-02-19T03:49:43.984Z,99864.00
2023-02-19T03:52:37.435Z,99864.03
2023-02-19T03:55:26.606Z,99866.56
2023-02-19T03:58:05.579Z,99866.56
2023-02-19T04:00:41.128Z,99856.31
2023-02-19T04:03:21.346Z,99852.84
2023-02-19T04:05:51.425Z,99855.41
2023-02-19T04:08:22.519Z,99846.03
2023-02-19T04:10:55.879Z,99858.00
2023-02-19T04:13:39.032Z,99858.00
2023-02-19T04:16:14.045Z,99864.84
2023-02-19T04:18:44.600Z,99852.94
2023-02-19T04:21:12.809Z,99859.78
2023-02-19T04:23:44.149Z,99857.25
2023-02-19T04:26:12.932Z,99865.84
2023-02-19T04:28:41.419Z,99861.53
2023-02-19T04:31:09.605Z,99867.56
2023-02-19T04:33:38.164Z,99863.31
2023-02-19T04:36:05.778Z,99864.94
2023-02-19T04:38:33.117Z,99873.53
2023-02-19T04:41:00.340Z,99867.56
2023-02-19T04:43:27.634Z,99860.72
2023-02-19T04:45:54.947Z,99870.09
2023-02-19T04:48:22.154Z,99861.59
2023-02-19T04:50:49.385Z,99877.84
2023-02-19T04:53:16.719Z,99865.84
2023-02-19T04:55:44.084Z,99878.66
2023-02-19T04:58:11.430Z,99882.13
2023-02-19T05:00:38.763Z,99868.38
2023-02-19T05:03:06.357Z,99882.09
2023-02-19T05:05:33.735Z,99883.75
2023-02-19T05:08:00.992Z,99880.34
2023-02-19T05:10:28.259Z,99882.06
2023-02-19T05:12:57.862Z,99869.28
2023-02-19T05:15:25.468Z,99873.59
2023-02-19T05:17:52.741Z,99871.94
2023-02-19T05:20:20.001Z,99868.44
2023-02-19T05:22:47.255Z,99878.69
2023-02-19T05:25:14.741Z,99878.66
2023-02-19T05:27:42.113Z,99881.25
2023-02-19T05:30:10.301Z,99877.00
2023-02-19T05:32:38.236Z,99883.81
2023-02-19T05:35:05.762Z,99888.06
2023-02-19T05:37:33.065Z,99882.91
2023-02-19T05:40:00.354Z,99873.44
2023-02-19T05:42:27.702Z,99873.44
2023-02-19T05:44:55.043Z,99878.56
2023-02-19T05:47:22.242Z,99867.38
2023-02-19T05:49:49.567Z,99878.47
2023-02-19T05:52:16.887Z,99875.91
2023-02-19T05:54:44.256Z,99876.72
2023-02-19T05:57:11.572Z,99871.63
2023-02-19T05:59:38.807Z,99880.13
2023-02-19T06:02:06.186Z,99871.53
2023-02-19T06:04:33.502Z,99875.03
2023-02-19T06:07:00.810Z,99876.69
2023-02-19T06:09:28.280Z,99878.44
2023-02-19T06:11:55.649Z,99880.16
2023-02-19T06:14:22.993Z,99876.72
2023-02-19T06:16:50.211Z,99886.91
2023-02-19T06:19:17.535Z,99888.59
2023-02-19T06:21:45.054Z,99885.09
2023-02-19T06:24:12.342Z,99900.56
2023-02-19T06:26:39.719Z,99895.44
2023-02-19T06:29:06.980Z,99897.16
2023-02-19T06:31:34.377Z,99902.22
2023-02-19T06:34:04.815Z,99900.59
2023-02-19T06:36:32.158Z,99905.72
2023-02-19T06:39:04.776Z,99904.00
2023-02-19T06:41:32.420Z,99910.81
2023-02-19T06:43:59.700Z,99903.97
2023-02-19T06:46:28.210Z,99912.47
2023-02-19T06:48:56.006Z,99901.38
2023-02-19T06:51:26.715Z,99905.66
2023-02-19T06:53:55.522Z,99915.91
2023-02-19T06:56:33.447Z,99915.03
2023-02-19T06:59:04.215Z,99920.19
2023-02-19T07:01:33.946Z,99917.56
2023-02-19T07:04:02.388Z,99923.59
2023-02-19T07:06:31.489Z,99923.59
2023-02-19T07:09:00.142Z,99921.06
2023-02-19T07:11:31.273Z,99929.50
2023-02-19T07:14:01.184Z,99926.13
2023-02-19T07:16:29.915Z,99925.25
2023-02-19T07:19:01.184Z,99924.53
2023-02-19T07:21:31.159Z,99927.94
2023-02-19T07:23:59.261Z,99931.28
2023-02-19T07:26:27.419Z,99930.47
2023-02-19T07:28:55.728Z,99931.38
2023-02-19T07:31:25.316Z,99931.44
2023-02-19T07:33:53.759Z,99936.59
2023-02-19T07:36:23.937Z,99938.41
2023-02-19T07:38:58.647Z,99931.59
2023-02-19T07:41:28.003Z,99939.31
2023-02-19T07:43:58.665Z,99935.16
2023-02-19T07:46:26.729Z,99938.59
2023-02-19T07:48:54.657Z,99934.44
2023-02-19T07:51:22.894Z,99943.91
2023-02-19T07:53:51.728Z,99911.31
2023-02-19T07:56:20.629Z,99947.47
2023-02-19T07:58:48.446Z,99945.75
2023-02-19T08:01:19.346Z,99951.63
2023-02-19T08:03:50.074Z,99950.84
2023-02-19T08:06:18.136Z,99949.19
2023-02-19T08:08:46.204Z,99962.91
2023-02-19T08:11:32.745Z,99970.50
2023-02-19T08:14:00.624Z,99978.31
2023-02-19T08:16:41.963Z,99971.53
2023-02-19T08:19:10.625Z,99970.75
2023-02-19T08:21:38.507Z,99961.25
2023-02-19T08:24:06.778Z,99966.44
2023-02-19T08:26:35.171Z,99977.59
2023-02-19T08:29:04.517Z,99988.75
2023-02-19T08:31:33.313Z,99999.00
2023-02-19T08:34:01.545Z,99983.69
2023-02-19T08:36:29.720Z,99987.94
2023-02-19T08:38:57.722Z,99980.19
2023-02-19T08:41:25.392Z,99987.09
2023-02-19T08:43:53.411Z,99992.25
2023-02-19T08:46:23.180Z,100003.38
2023-02-19T08:48:51.465Z,100016.19
2023-02-19T08:51:19.652Z,100008.56
2023-02-19T08:53:47.774Z,100027.38
2023-02-19T08:56:17.952Z,100033.38
2023-02-19T08:58:46.003Z,100023.19
2023-02-19T09:01:18.678Z,100025.75
2023-02-19T09:03:47.278Z,100025.75
2023-02-19T09:06:19.197Z,100026.63
2023-02-19T09:08:47.591Z,100032.63
2023-02-19T09:11:16.200Z,100025.06
2023-02-19T09:13:44.843Z,100023.41
2023-02-19T09:16:13.276Z,100038.72
2023-02-19T09:18:40.967Z,100042.16
2023-02-19T09:21:09.098Z,100031.94
2023-02-19T09:23:38.462Z,100049.81
2023-02-19T09:26:10.471Z,100040.59
2023-02-19T09:28:42.192Z,100045.03
2023-02-19T09:31:14.093Z,100040.88
2023-02-19T09:33:49.592Z,100051.22
2023-02-19T09:36:19.414Z,100042.78
2023-02-19T09:38:47.453Z,100044.47
2023-02-19T09:41:23.283Z,100053.06
2023-02-19T09:43:51.523Z,100056.44
2023-02-19T09:46:49.503Z,100058.13
2023-02-19T09:49:30.823Z,100070.06
2023-02-19T09:52:07.172Z,100070.16
2023-02-19T09:54:37.852Z,100068.44
2023-02-19T09:57:07.160Z,100071.03
2023-02-19T09:59:46.286Z,100082.13
2023-02-19T10:02:20.718Z,100084.75
2023-02-19T10:04:51.811Z,100091.63
2023-02-19T10:07:42.690Z,100078.84
2023-02-19T10:10:13.385Z,100101.06
2023-02-19T10:12:48.301Z,100110.50
2023-02-19T10:15:26.385Z,100104.53
2023-02-19T10:17:54.157Z,100097.72
2023-02-19T10:20:27.177Z,100106.28
2023-02-19T10:23:11.080Z,100111.44
2023-02-19T10:25:45.289Z,100104.63
2023-02-19T10:28:22.789Z,100114.03
2023-02-19T10:30:58.953Z,100113.22
2023-02-19T10:33:27.542Z,100112.50
2023-02-19T10:35:59.049Z,100112.56
2023-02-19T10:38:30.061Z,100122.94
2023-02-19T10:41:08.450Z,100117.00
2023-02-19T10:43:41.412Z,100127.25
2023-02-19T10:46:22.604Z,100126.31
2023-02-19T10:49:00.778Z,100106.66
2023-02-19T10:51:37.840Z,100128.97
2023-02-19T10:54:17.005Z,100127.28
2023-02-19T10:56:45.333Z,100128.22
2023-02-19T10:59:26.177Z,100125.72
2023-02-19T11:02:04.674Z,100127.44
2023-02-19T11:04:35.926Z,100126.56
2023-02-19T11:07:18.367Z,100126.59
2023-02-19T11:09:50.140Z,100132.50
2023-02-19T11:12:28.809Z,100130.66
2023-02-19T11:14:56.739Z,100144.28
2023-02-19T11:17:26.118Z,100135.84
2023-02-19T11:19:59.169Z,100131.59
2023-02-19T11:22:34.753Z,100143.53
2023-02-19T11:25:13.548Z,100134.94
2023-02-19T11:28:10.562Z,100148.53
2023-02-19T11:30:42.588Z,100154.41
2023-02-19T11:33:22.919Z,100152.59
2023-02-19T11:35:54.570Z,100147.41
2023-02-19T11:38:22.806Z,100148.16
2023-02-19T11:41:32.038Z,100151.53
2023-02-19T11:44:30.514Z,100161.06
2023-02-19T11:47:16.532Z,100156.94
2023-02-19T11:49:51.270Z,100165.63
2023-02-19T11:52:30.711Z,100170.00
2023-02-19T11:55:19.800Z,100171.72
2023-02-19T11:57:53.224Z,100159.84
2023-02-19T12:00:41.885Z,100160.78
2023-02-19T12:03:55.569Z,100161.72
2023-02-19T12:06:59.815Z,100159.25
2023-02-19T12:09:48.099Z,100158.53
2023-02-19T12:12:30.368Z,100156.84
2023-02-19T12:15:09.515Z,100162.91
2023-02-19T12:17:47.326Z,100170.56
2023-02-19T12:20:23.490Z,100176.56
2023-02-19T12:23:11.105Z,100186.75
2023-02-19T12:26:00.342Z,100179.16
2023-02-19T12:28:42.809Z,100168.97
2023-02-19T12:31:28.819Z,100162.19
2023-02-19T12:34:26.656Z,100181.00
2023-02-19T12:37:12.757Z,100181.00
2023-02-19T12:39:54.382Z,100181.00
2023-02-19T12:42:46.445Z,100184.47
2023-02-19T12:45:21.868Z,100195.69
2023-02-19T12:48:01.401Z,100203.53
2023-02-19T12:50:30.042Z,100204.47
2023-02-19T12:53:12.185Z,100195.00
2023-02-19T12:55:44.698Z,100208.59
2023-02-19T12:58:30.252Z,100205.09
2023-02-19T13:01:00.181Z,100207.66
2023-02-19T13:03:49.486Z,100215.28
2023-02-19T13:07:07.824Z,100210.94
2023-02-19T13:09:42.185Z,100202.41
2023-02-19T13:12:27.258Z,100200.72
2023-02-19T13:15:18.760Z,100226.50
2023-02-19T13:17:52.211Z,100217.94
2023-02-19T13:20:44.055Z,100225.66
2023-02-19T13:23:37.466Z,100232.53
2023-02-19T13:26:11.574Z,100240.13
2023-02-19T13:29:09.132Z,100236.59
2023-02-19T13:32:01.964Z,100242.47
2023-02-19T13:34:55.217Z,100245.03
2023-02-19T13:37:24.585Z,100238.16
2023-02-19T13:39:56.289Z,100245.09
2023-02-19T13:42:28.278Z,100232.28
2023-02-19T13:44:58.066Z,100237.41
2023-02-19T13:47:49.106Z,100246.75
2023-02-19T13:50:30.276Z,100250.19
2023-02-19T13:53:01.743Z,100227.09
2023-02-19T13:55:47.322Z,100242.63
2023-02-19T13:58:34.244Z,100244.34
2023-02-19T14:01:11.024Z,100249.50
2023-02-19T14:03:55.160Z,100258.09
2023-02-19T14:06:22.921Z,100252.97
2023-02-19T14:09:00.716Z,100251.22
2023-02-19T14:11:44.548Z,100257.25
2023-02-19T14:14:27.404Z,100268.38
2023-02-19T14:17:25.069Z,100256.38
2023-02-19T14:19:57.000Z,100275.97
2023-02-19T14:22:58.390Z,100283.63
2023-02-19T14:25:31.789Z,100290.41
2023-02-19T14:28:12.769Z,100290.28
2023-02-19T14:30:54.578Z,100303.97
2023-02-19T14:33:31.248Z,100302.19
2023-02-19T14:36:22.199Z,100309.84
2023-02-19T14:39:13.473Z,100307.25
2023-02-19T14:41:44.431Z,100313.19
2023-02-19T14:44:33.434Z,100308.84
2023-02-19T14:47:07.674Z,100325.91
2023-02-19T14:49:48.739Z,100320.69
2023-02-19T14:52:37.268Z,100330.06
2023-02-19T14:55:34.530Z,100339.47
2023-02-19T14:58:08.287Z,100335.97
2023-02-19T15:00:38.741Z,100344.44
2023-02-19T15:03:07.328Z,100344.28
2023-02-19T15:05:37.486Z,100345.94
2023-02-19T15:08:10.587Z,100340.66
2023-02-19T15:10:39.898Z,100344.00
2023-02-19T15:13:12.538Z,100359.22
2023-02-19T15:15:45.791Z,100353.94
2023-02-19T15:18:24.580Z,100365.91
2023-02-19T15:21:01.763Z,100376.06
2023-02-19T15:23:32.399Z,100377.84
2023-02-19T15:26:01.128Z,100378.66
2023-02-19T15:28:33.391Z,100382.94
2023-02-19T15:31:02.670Z,100388.81
2023-02-19T15:33:30.618Z,100403.25
2023-02-19T15:36:05.268Z,100391.19
2023-02-19T15:38:34.539Z,100384.25
2023-02-19T15:41:03.306Z,100383.47
2023-02-19T15:43:51.263Z,100407.31
2023-02-19T15:46:22.916Z,100413.25
2023-02-19T15:49:00.214Z,100414.00
2023-02-19T15:51:39.145Z,100414.75
2023-02-19T15:54:30.075Z,100409.53
2023-02-19T15:57:04.566Z,100415.38
2023-02-19T15:59:40.680Z,100407.44
2023-02-19T16:02:16.605Z,100404.00
2023-02-19T16:04:46.267Z,100422.75
2023-02-19T16:07:29.008Z,100426.06
2023-02-19T16:10:21.064Z,100434.53
2023-02-19T16:13:00.258Z,100437.84
2023-02-19T16:15:30.450Z,100442.03
2023-02-19T16:17:59.836Z,100451.31
2023-02-19T16:20:29.465Z,100455.50
2023-02-19T16:23:01.475Z,100463.03
2023-02-19T16:25:42.029Z,100467.31
2023-02-19T16:28:20.041Z,100486.81
2023-02-19T16:30:57.174Z,100489.31
2023-02-19T16:34:16.044Z,100489.97
2023-02-19T16:36:46.244Z,100498.50
2023-02-19T16:39:17.543Z,100489.84
2023-02-19T16:41:48.552Z,100498.28
2023-02-19T16:44:22.427Z,100505.06
2023-02-19T16:47:04.388Z,100507.53
2023-02-19T16:49:32.885Z,100497.25
2023-02-19T16:52:04.284Z,100516.78
2023-02-19T16:54:32.653Z,100521.66
2023-02-19T16:57:00.864Z,100525.13
2023-02-19T16:59:28.796Z,100531.88
2023-02-19T17:01:57.384Z,100540.31
2023-02-19T17:04:25.503Z,100555.59
2023-02-19T17:06:53.514Z,100551.28
2023-02-19T17:09:21.454Z,100545.28
2023-02-19T17:11:49.368Z,100540.09
2023-02-19T17:14:17.073Z,100534.88
2023-02-19T17:16:45.128Z,100541.66
2023-02-19T17:19:16.284Z,100545.81
2023-02-19T17:21:45.615Z,100538.91
2023-02-19T17:24:14.234Z,100542.97
2023-02-19T17:26:42.236Z,100534.25
2023-02-19T17:29:14.697Z,100542.66
2023-02-19T17:31:42.955Z,100538.47
2023-02-19T17:34:11.385Z,100551.13
2023-02-19T17:36:39.743Z,100550.97
2023-02-19T17:39:07.682Z,100567.16
2023-02-19T17:41:35.848Z,100564.41
2023-02-19T17:44:03.452Z,100580.59
2023-02-19T17:46:31.493Z,100571.88
2023-02-19T17:48:59.582Z,100588.22
2023-02-19T17:51:27.789Z,100601.72
2023-02-19T17:53:55.810Z,100600.75
2023-02-19T17:56:26.907Z,100608.38
2023-02-19T17:58:59.136Z,100610.03
2023-02-19T18:01:27.257Z,100611.66
2023-02-19T18:03:55.459Z,100610.78
2023-02-19T18:06:23.547Z,100614.09
2023-02-19T18:08:56.237Z,100588.97
2023-02-19T18:11:24.808Z,100631.91
2023-02-19T18:13:52.915Z,100618.91
2023-02-19T18:16:22.291Z,100617.88
2023-02-19T18:18:49.597Z,100620.47
2023-02-19T18:21:17.107Z,100629.81
2023-02-19T18:23:46.724Z,100641.66
2023-02-19T18:26:20.473Z,100649.97
2023-02-19T18:28:47.816Z,100651.69
2023-02-19T18:31:15.540Z,100655.84
2023-02-19T18:33:43.222Z,100649.13
2023-02-19T18:36:12.221Z,100660.06
2023-02-19T18:38:39.743Z,100658.22
2023-02-19T18:41:12.431Z,100657.31
2023-02-19T18:43:43.269Z,100661.53
2023-02-19T18:46:11.321Z,100659.00
2023-02-19T18:48:39.378Z,100651.31
2023-02-19T18:51:11.341Z,100653.72
2023-02-19T18:53:38.994Z,100644.97
2023-02-19T18:56:09.156Z,100639.06
2023-02-19T18:58:36.558Z,100645.72
2023-02-19T19:01:04.214Z,100623.19
2023-02-19T19:03:32.270Z,100643.16
2023-02-19T19:05:59.881Z,100647.53
2023-02-19T19:08:29.188Z,100643.34
2023-02-19T19:10:58.140Z,100636.38
2023-02-19T19:13:25.772Z,100638.06
2023-02-19T19:15:53.466Z,100633.56
2023-02-19T19:18:21.022Z,100635.22
2023-02-19T19:20:48.371Z,100638.59
2023-02-19T19:23:15.765Z,100638.50
2023-02-19T19:25:43.536Z,100637.53
2023-02-19T19:28:11.484Z,100645.22
2023-02-19T19:30:39.382Z,100633.88
2023-02-19T19:33:07.352Z,100650.13
2023-02-19T19:35:35.258Z,100660.31
2023-02-19T19:38:03.568Z,100657.72
2023-02-19T19:40:31.875Z,100647.28
2023-02-19T19:42:59.996Z,100651.66
2023-02-19T19:45:28.549Z,100641.34
2023-02-19T19:47:56.663Z,100657.69
2023-02-19T19:50:25.005Z,100653.38
2023-02-19T19:52:53.034Z,100661.19
2023-02-19T19:55:24.268Z,100663.63
2023-02-19T19:57:54.599Z,100653.28
2023-02-19T20:00:24.947Z,100646.56
2023-02-19T20:02:52.671Z,100638.75
2023-02-19T20:05:20.627Z,100639.72
2023-02-19T20:07:48.816Z,100636.34
2023-02-19T20:10:19.751Z,100655.13
2023-02-19T20:12:48.310Z,100641.34
2023-02-19T20:15:22.544Z,100657.84
2023-02-19T20:17:50.935Z,100643.44
2023-02-19T20:20:20.068Z,100646.88
2023-02-19T20:22:48.033Z,100641.09
2023-02-19T20:25:16.667Z,100637.56
2023-02-19T20:27:44.842Z,100640.03
2023-02-19T20:30:15.120Z,100643.50
2023-02-19T20:32:43.892Z,100653.69
2023-02-19T20:35:11.980Z,100645.13
2023-02-19T20:37:40.987Z,100655.22
2023-02-19T20:40:09.613Z,100660.41
2023-02-19T20:42:37.518Z,100661.19
2023-02-19T20:45:06.665Z,100668.91
2023-02-19T20:47:34.652Z,100678.16
2023-02-19T20:50:02.742Z,100663.56
2023-02-19T20:52:30.525Z,100677.47
2023-02-19T20:54:58.572Z,100677.56
2023-02-19T20:57:26.593Z,100671.56
2023-02-19T20:59:54.496Z,100668.84
2023-02-19T21:02:28.464Z,100675.81
2023-02-19T21:05:00.302Z,100677.56
2023-02-19T21:07:28.591Z,100676.44
2023-02-19T21:09:56.335Z,100684.19
2023-02-19T21:12:24.336Z,100680.72
2023-02-19T21:14:52.606Z,100687.44
2023-02-19T21:17:20.640Z,100691.50
2023-02-19T21:19:50.203Z,100682.81
2023-02-19T21:22:18.102Z,100686.94
2023-02-19T21:24:50.012Z,100688.56
2023-02-19T21:27:18.703Z,100693.47
2023-02-19T21:29:47.828Z,100707.22
2023-02-19T21:32:16.115Z,100712.22
2023-02-19T21:34:43.828Z,100714.75
2023-02-19T21:37:12.009Z,100691.63
2023-02-19T21:39:39.796Z,100707.00
2023-02-19T21:42:07.583Z,100715.59
2023-02-19T21:44:35.503Z,100709.56
2023-02-19T21:47:03.509Z,100717.19
2023-02-19T21:49:31.664Z,100703.53
2023-02-19T21:51:59.590Z,100708.53
2023-02-19T21:54:27.313Z,100692.94
2023-02-19T21:56:55.455Z,100712.00
2023-02-19T21:59:23.950Z,100705.19
2023-02-19T22:01:52.310Z,100703.53
2023-02-19T22:04:22.501Z,100717.09
2023-02-19T22:06:51.279Z,100705.19
2023-02-19T22:09:18.983Z,100706.81
2023-02-19T22:11:46.614Z,100704.84
2023-02-19T22:14:14.891Z,100706.81
2023-02-19T22:16:42.613Z,100699.09
2023-02-19T22:19:12.494Z,100708.53
2023-02-19T22:21:44.037Z,100686.22
2023-02-19T22:24:18.109Z,100693.13
2023-02-19T22:26:46.568Z,100697.38
2023-02-19T22:29:16.300Z,100685.56
2023-02-19T22:31:44.366Z,100682.00
2023-02-19T22:34:13.314Z,100669.16
2023-02-19T22:36:40.858Z,100673.59
2023-02-19T22:39:21.413Z,100676.03
2023-02-19T22:41:50.328Z,100675.19
2023-02-19T22:44:18.663Z,100674.38
2023-02-19T22:46:49.777Z,100686.31
2023-02-19T22:49:18.490Z,100687.19
2023-02-19T22:52:14.065Z,100686.22
2023-02-19T22:54:41.896Z,100686.22
2023-02-19T22:57:09.546Z,100685.19
2023-02-19T22:59:37.511Z,100691.22
2023-02-19T23:02:05.324Z,100687.72
2023-02-19T23:04:33.315Z,100669.63
2023-02-19T23:07:01.161Z,100672.22
2023-02-19T23:09:29.684Z,100701.41
2023-02-19T23:12:08.429Z,100697.72
2023-02-19T23:14:36.012Z,100706.34
2023-02-19T23:17:03.565Z,100699.53
2023-02-19T23:19:31.184Z,100701.25
2023-02-19T23:21:58.615Z,100695.31
2023-02-19T23:24:26.241Z,100696.16
2023-02-19T23:26:54.340Z,100685.75
2023-02-19T23:29:25.605Z,100692.84
2023-02-19T23:31:53.527Z,100693.75
2023-02-19T23:34:20.946Z,100689.34
2023-02-19T23:36:50.750Z,100683.38
2023-02-19T23:39:20.648Z,100681.69
2023-02-19T23:41:56.582Z,100664.41
2023-02-19T23:44:25.453Z,100668.00
2023-02-19T23:46:53.480Z,100670.59
2023-02-19T23:49:20.927Z,100670.59
2023-02-19T23:51:48.421Z,100678.19
2023-02-19T23:54:15.987Z,100680.78
2023-02-19T23:56:43.278Z,100677.44
2023-02-19T23:59:10.742Z,100678.28
